sensor_id;sensor_type;location;lat;lon;timestamp;P1;durP1;ratioP1;P2;durP2;ratioP2
485;SDS011;229;48.734;9.340;2023-05-14T00:02:26;19.13;;;11.70;;
485;SDS011;229;48.734;9.340;2023-05-14T00:04:53;16.67;;;11.13;;
485;SDS011;229;48.734;9.340;2023-05-14T00:07:20;13.63;;;9.05;;
485;SDS011;229;48.734;9.340;2023-05-14T00:09:47;10.95;;;8.50;;
485;SDS011;229;48.734;9.340;2023-05-14T00:12:16;11.45;;;9.90;;
485;SDS011;229;48.734;9.340;2023-05-14T00:14:43;15.95;;;9.30;;
485;SDS011;229;48.734;9.340;2023-05-14T00:17:10;11.90;;;8.45;;
485;SDS011;229;48.734;9.340;2023-05-14T00:19:37;11.68;;;9.57;;
485;SDS011;229;48.734;9.340;2023-05-14T00:22:05;11.77;;;9.65;;
485;SDS011;229;48.734;9.340;2023-05-14T00:24:33;12.93;;;9.30;;
485;SDS011;229;48.734;9.340;2023-05-14T00:27:00;11.77;;;9.38;;
485;SDS011;229;48.734;9.340;2023-05-14T00:29:29;11.40;;;8.82;;
485;SDS011;229;48.734;9.340;2023-05-14T00:31:56;13.10;;;8.95;;
485;SDS011;229;48.734;9.340;2023-05-14T00:34:23;12.80;;;9.45;;
485;SDS011;229;48.734;9.340;2023-05-14T00:36:50;10.55;;;9.65;;
485;SDS011;229;48.734;9.340;2023-05-14T00:39:17;10.98;;;9.95;;
485;SDS011;229;48.734;9.340;2023-05-14T00:41:44;12.88;;;9.98;;
485;SDS011;229;48.734;9.340;2023-05-14T00:44:12;10.38;;;9.18;;
485;SDS011;229;48.734;9.340;2023-05-14T00:46:40;12.38;;;10.32;;
485;SDS011;229;48.734;9.340;2023-05-14T00:49:08;12.32;;;9.85;;
485;SDS011;229;48.734;9.340;2023-05-14T00:51:35;13.65;;;8.85;;
485;SDS011;229;48.734;9.340;2023-05-14T00:54:02;13.82;;;10.85;;
485;SDS011;229;48.734;9.340;2023-05-14T00:56:30;12.57;;;9.98;;
485;SDS011;229;48.734;9.340;2023-05-14T00:58:57;11.45;;;9.80;;
485;SDS011;229;48.734;9.340;2023-05-14T01:01:24;13.10;;;9.45;;
485;SDS011;229;48.734;9.340;2023-05-14T01:03:54;11.18;;;9.10;;
485;SDS011;229;48.734;9.340;2023-05-14T01:06:24;12.00;;;9.27;;
485;SDS011;229;48.734;9.340;2023-05-14T01:08:54;8.82;;;7.00;;
485;SDS011;229;48.734;9.340;2023-05-14T01:11:25;11.68;;;7.85;;
485;SDS011;229;48.734;9.340;2023-05-14T01:13:56;7.10;;;6.70;;
485;SDS011;229;48.734;9.340;2023-05-14T01:16:27;11.02;;;7.50;;
485;SDS011;229;48.734;9.340;2023-05-14T01:18:56;8.20;;;7.80;;
485;SDS011;229;48.734;9.340;2023-05-14T01:21:35;8.95;;;8.15;;
485;SDS011;229;48.734;9.340;2023-05-14T01:24:04;13.88;;;7.78;;
485;SDS011;229;48.734;9.340;2023-05-14T01:26:31;10.35;;;7.85;;
485;SDS011;229;48.734;9.340;2023-05-14T01:29:00;11.10;;;8.10;;
485;SDS011;229;48.734;9.340;2023-05-14T01:31:27;12.20;;;9.68;;
485;SDS011;229;48.734;9.340;2023-05-14T01:33:56;11.27;;;8.82;;
485;SDS011;229;48.734;9.340;2023-05-14T01:36:24;11.95;;;10.50;;
485;SDS011;229;48.734;9.340;2023-05-14T01:38:54;17.13;;;10.70;;
485;SDS011;229;48.734;9.340;2023-05-14T01:41:22;14.88;;;11.02;;
485;SDS011;229;48.734;9.340;2023-05-14T01:43:51;15.90;;;9.80;;
485;SDS011;229;48.734;9.340;2023-05-14T01:46:18;14.35;;;9.98;;
485;SDS011;229;48.734;9.340;2023-05-14T01:48:48;10.23;;;8.82;;
485;SDS011;229;48.734;9.340;2023-05-14T01:51:15;9.25;;;8.35;;
485;SDS011;229;48.734;9.340;2023-05-14T01:53:42;10.30;;;7.50;;
485;SDS011;229;48.734;9.340;2023-05-14T01:56:11;10.85;;;8.60;;
485;SDS011;229;48.734;9.340;2023-05-14T01:58:41;10.32;;;8.60;;
485;SDS011;229;48.734;9.340;2023-05-14T02:01:08;11.32;;;9.05;;
485;SDS011;229;48.734;9.340;2023-05-14T02:03:35;9.90;;;8.05;;
485;SDS011;229;48.734;9.340;2023-05-14T02:06:02;10.30;;;9.00;;
485;SDS011;229;48.734;9.340;2023-05-14T02:08:30;10.48;;;9.10;;
485;SDS011;229;48.734;9.340;2023-05-14T02:10:57;12.93;;;9.45;;
485;SDS011;229;48.734;9.340;2023-05-14T02:13:25;13.40;;;9.57;;
485;SDS011;229;48.734;9.340;2023-05-14T02:15:53;12.70;;;10.43;;
485;SDS011;229;48.734;9.340;2023-05-14T02:18:20;14.93;;;10.93;;
485;SDS011;229;48.734;9.340;2023-05-14T02:20:47;12.95;;;11.00;;
485;SDS011;229;48.734;9.340;2023-05-14T02:23:14;13.95;;;11.00;;
485;SDS011;229;48.734;9.340;2023-05-14T02:25:42;33.13;;;11.70;;
485;SDS011;229;48.734;9.340;2023-05-14T02:28:09;10.43;;;9.93;;
485;SDS011;229;48.734;9.340;2023-05-14T02:30:38;15.05;;;10.50;;
485;SDS011;229;48.734;9.340;2023-05-14T02:33:05;13.15;;;9.65;;
485;SDS011;229;48.734;9.340;2023-05-14T02:35:32;13.43;;;10.52;;
485;SDS011;229;48.734;9.340;2023-05-14T02:38:00;13.60;;;10.55;;
485;SDS011;229;48.734;9.340;2023-05-14T02:40:27;12.75;;;10.57;;
485;SDS011;229;48.734;9.340;2023-05-14T02:42:54;13.20;;;11.18;;
485;SDS011;229;48.734;9.340;2023-05-14T02:45:21;13.98;;;10.65;;
485;SDS011;229;48.734;9.340;2023-05-14T02:47:50;13.27;;;10.88;;
485;SDS011;229;48.734;9.340;2023-05-14T02:50:17;15.85;;;12.75;;
485;SDS011;229;48.734;9.340;2023-05-14T02:52:44;17.60;;;12.88;;
485;SDS011;229;48.734;9.340;2023-05-14T02:55:12;15.77;;;11.98;;
485;SDS011;229;48.734;9.340;2023-05-14T02:57:39;15.32;;;12.02;;
485;SDS011;229;48.734;9.340;2023-05-14T03:00:06;15.45;;;12.32;;
485;SDS011;229;48.734;9.340;2023-05-14T03:02:34;15.55;;;12.13;;
485;SDS011;229;48.734;9.340;2023-05-14T03:05:03;16.00;;;12.10;;
485;SDS011;229;48.734;9.340;2023-05-14T03:07:30;16.30;;;11.63;;
485;SDS011;229;48.734;9.340;2023-05-14T03:09:57;17.52;;;12.57;;
485;SDS011;229;48.734;9.340;2023-05-14T03:12:24;15.48;;;12.23;;
485;SDS011;229;48.734;9.340;2023-05-14T03:14:51;18.58;;;12.63;;
485;SDS011;229;48.734;9.340;2023-05-14T03:17:19;17.58;;;13.02;;
485;SDS011;229;48.734;9.340;2023-05-14T03:19:46;15.23;;;12.60;;
485;SDS011;229;48.734;9.340;2023-05-14T03:22:14;16.52;;;13.50;;
485;SDS011;229;48.734;9.340;2023-05-14T03:24:41;17.70;;;13.70;;
485;SDS011;229;48.734;9.340;2023-05-14T03:27:09;17.50;;;13.32;;
485;SDS011;229;48.734;9.340;2023-05-14T03:29:36;20.48;;;13.98;;
485;SDS011;229;48.734;9.340;2023-05-14T03:32:03;17.30;;;13.30;;
485;SDS011;229;48.734;9.340;2023-05-14T03:34:31;16.25;;;13.43;;
485;SDS011;229;48.734;9.340;2023-05-14T03:36:58;18.50;;;13.30;;
485;SDS011;229;48.734;9.340;2023-05-14T03:39:26;20.08;;;12.68;;
485;SDS011;229;48.734;9.340;2023-05-14T03:41:54;17.25;;;13.50;;
485;SDS011;229;48.734;9.340;2023-05-14T03:44:22;16.27;;;13.00;;
485;SDS011;229;48.734;9.340;2023-05-14T03:46:50;17.02;;;13.40;;
485;SDS011;229;48.734;9.340;2023-05-14T03:49:17;18.08;;;13.35;;
485;SDS011;229;48.734;9.340;2023-05-14T03:51:44;18.20;;;13.77;;
485;SDS011;229;48.734;9.340;2023-05-14T03:54:11;18.05;;;13.80;;
485;SDS011;229;48.734;9.340;2023-05-14T03:56:40;17.20;;;12.70;;
485;SDS011;229;48.734;9.340;2023-05-14T03:59:07;19.05;;;12.60;;
485;SDS011;229;48.734;9.340;2023-05-14T04:01:34;17.10;;;14.00;;
485;SDS011;229;48.734;9.340;2023-05-14T04:04:01;18.70;;;13.70;;
485;SDS011;229;48.734;9.340;2023-05-14T04:06:28;19.33;;;12.25;;
485;SDS011;229;48.734;9.340;2023-05-14T04:08:56;17.52;;;13.88;;
485;SDS011;229;48.734;9.340;2023-05-14T04:11:23;17.15;;;13.18;;
485;SDS011;229;48.734;9.340;2023-05-14T04:13:51;15.40;;;12.60;;
485;SDS011;229;48.734;9.340;2023-05-14T04:16:19;17.30;;;14.07;;
485;SDS011;229;48.734;9.340;2023-05-14T04:18:46;16.15;;;13.32;;
485;SDS011;229;48.734;9.340;2023-05-14T04:21:13;16.38;;;12.77;;
485;SDS011;229;48.734;9.340;2023-05-14T04:23:40;15.70;;;13.27;;
485;SDS011;229;48.734;9.340;2023-05-14T04:26:07;15.48;;;13.13;;
485;SDS011;229;48.734;9.340;2023-05-14T04:28:35;18.42;;;14.35;;
485;SDS011;229;48.734;9.340;2023-05-14T04:31:03;17.10;;;13.73;;
485;SDS011;229;48.734;9.340;2023-05-14T04:33:31;17.77;;;14.10;;
485;SDS011;229;48.734;9.340;2023-05-14T04:35:58;17.48;;;13.65;;
485;SDS011;229;48.734;9.340;2023-05-14T04:38:26;14.82;;;12.40;;
485;SDS011;229;48.734;9.340;2023-05-14T04:40:53;15.80;;;13.27;;
485;SDS011;229;48.734;9.340;2023-05-14T04:43:21;17.90;;;12.95;;
485;SDS011;229;48.734;9.340;2023-05-14T04:45:48;16.48;;;13.10;;
485;SDS011;229;48.734;9.340;2023-05-14T04:48:17;15.55;;;13.23;;
485;SDS011;229;48.734;9.340;2023-05-14T04:50:44;19.02;;;12.80;;
485;SDS011;229;48.734;9.340;2023-05-14T04:53:11;15.95;;;12.30;;
485;SDS011;229;48.734;9.340;2023-05-14T04:55:38;14.15;;;12.00;;
485;SDS011;229;48.734;9.340;2023-05-14T04:58:06;18.88;;;13.52;;
485;SDS011;229;48.734;9.340;2023-05-14T05:00:33;13.52;;;11.40;;
485;SDS011;229;48.734;9.340;2023-05-14T05:03:00;17.33;;;13.10;;
485;SDS011;229;48.734;9.340;2023-05-14T05:05:29;16.70;;;12.68;;
485;SDS011;229;48.734;9.340;2023-05-14T05:07:56;15.32;;;12.25;;
485;SDS011;229;48.734;9.340;2023-05-14T05:10:23;19.38;;;13.07;;
485;SDS011;229;48.734;9.340;2023-05-14T05:12:50;18.05;;;13.95;;
485;SDS011;229;48.734;9.340;2023-05-14T05:15:17;15.60;;;12.13;;
485;SDS011;229;48.734;9.340;2023-05-14T05:17:45;17.35;;;13.15;;
485;SDS011;229;48.734;9.340;2023-05-14T05:20:12;19.90;;;12.60;;
485;SDS011;229;48.734;9.340;2023-05-14T05:22:40;17.92;;;12.50;;
485;SDS011;229;48.734;9.340;2023-05-14T05:25:08;12.73;;;11.93;;
485;SDS011;229;48.734;9.340;2023-05-14T05:27:36;17.88;;;12.77;;
485;SDS011;229;48.734;9.340;2023-05-14T05:30:04;14.93;;;11.90;;
485;SDS011;229;48.734;9.340;2023-05-14T05:32:32;14.38;;;12.43;;
485;SDS011;229;48.734;9.340;2023-05-14T05:35:00;15.85;;;12.10;;
485;SDS011;229;48.734;9.340;2023-05-14T05:37:27;12.88;;;10.85;;
485;SDS011;229;48.734;9.340;2023-05-14T05:39:55;13.93;;;11.55;;
485;SDS011;229;48.734;9.340;2023-05-14T05:42:23;13.68;;;11.52;;
485;SDS011;229;48.734;9.340;2023-05-14T05:44:50;14.18;;;10.90;;
485;SDS011;229;48.734;9.340;2023-05-14T05:47:17;12.95;;;10.77;;
485;SDS011;229;48.734;9.340;2023-05-14T05:49:44;14.82;;;11.25;;
485;SDS011;229;48.734;9.340;2023-05-14T05:52:11;14.70;;;11.00;;
485;SDS011;229;48.734;9.340;2023-05-14T05:54:39;14.15;;;10.80;;
485;SDS011;229;48.734;9.340;2023-05-14T05:57:07;13.68;;;10.88;;
485;SDS011;229;48.734;9.340;2023-05-14T05:59:34;13.07;;;10.35;;
485;SDS011;229;48.734;9.340;2023-05-14T06:02:01;14.30;;;11.02;;
485;SDS011;229;48.734;9.340;2023-05-14T06:04:29;13.00;;;10.23;;
485;SDS011;229;48.734;9.340;2023-05-14T06:06:56;14.60;;;11.30;;
485;SDS011;229;48.734;9.340;2023-05-14T06:09:23;16.15;;;10.63;;
485;SDS011;229;48.734;9.340;2023-05-14T06:11:50;15.02;;;11.18;;
485;SDS011;229;48.734;9.340;2023-05-14T06:14:19;14.40;;;11.20;;
485;SDS011;229;48.734;9.340;2023-05-14T06:16:46;14.65;;;11.27;;
485;SDS011;229;48.734;9.340;2023-05-14T06:19:13;12.95;;;11.27;;
485;SDS011;229;48.734;9.340;2023-05-14T06:21:40;14.85;;;11.20;;
485;SDS011;229;48.734;9.340;2023-05-14T06:24:08;13.50;;;11.55;;
485;SDS011;229;48.734;9.340;2023-05-14T06:26:37;12.98;;;10.30;;
485;SDS011;229;48.734;9.340;2023-05-14T06:29:04;18.60;;;11.43;;
485;SDS011;229;48.734;9.340;2023-05-14T06:31:33;15.20;;;11.32;;
485;SDS011;229;48.734;9.340;2023-05-14T06:34:00;22.42;;;11.95;;
485;SDS011;229;48.734;9.340;2023-05-14T06:36:27;13.70;;;11.13;;
485;SDS011;229;48.734;9.340;2023-05-14T06:38:54;14.38;;;11.05;;
485;SDS011;229;48.734;9.340;2023-05-14T06:41:21;14.38;;;11.73;;
485;SDS011;229;48.734;9.340;2023-05-14T06:43:48;13.10;;;11.32;;
485;SDS011;229;48.734;9.340;2023-05-14T06:46:15;16.35;;;11.90;;
485;SDS011;229;48.734;9.340;2023-05-14T06:48:44;14.20;;;11.73;;
485;SDS011;229;48.734;9.340;2023-05-14T06:51:11;16.45;;;11.65;;
485;SDS011;229;48.734;9.340;2023-05-14T06:53:39;15.75;;;11.70;;
485;SDS011;229;48.734;9.340;2023-05-14T06:56:06;16.00;;;11.90;;
485;SDS011;229;48.734;9.340;2023-05-14T06:58:33;12.95;;;11.32;;
485;SDS011;229;48.734;9.340;2023-05-14T07:01:00;16.45;;;11.65;;
485;SDS011;229;48.734;9.340;2023-05-14T07:03:27;15.90;;;11.00;;
485;SDS011;229;48.734;9.340;2023-05-14T07:05:56;16.10;;;11.48;;
485;SDS011;229;48.734;9.340;2023-05-14T07:08:23;15.68;;;11.48;;
485;SDS011;229;48.734;9.340;2023-05-14T07:10:50;14.50;;;10.88;;
485;SDS011;229;48.734;9.340;2023-05-14T07:13:17;13.70;;;11.23;;
485;SDS011;229;48.734;9.340;2023-05-14T07:15:45;13.32;;;10.90;;
485;SDS011;229;48.734;9.340;2023-05-14T07:18:12;15.82;;;11.40;;
485;SDS011;229;48.734;9.340;2023-05-14T07:20:39;12.93;;;11.68;;
485;SDS011;229;48.734;9.340;2023-05-14T07:23:07;22.20;;;12.57;;
485;SDS011;229;48.734;9.340;2023-05-14T07:25:35;13.82;;;11.43;;
485;SDS011;229;48.734;9.340;2023-05-14T07:28:02;14.00;;;11.50;;
485;SDS011;229;48.734;9.340;2023-05-14T07:30:29;16.27;;;10.82;;
485;SDS011;229;48.734;9.340;2023-05-14T07:32:56;15.05;;;11.70;;
485;SDS011;229;48.734;9.340;2023-05-14T07:35:24;13.52;;;10.75;;
485;SDS011;229;48.734;9.340;2023-05-14T07:37:51;13.77;;;11.82;;
485;SDS011;229;48.734;9.340;2023-05-14T07:40:19;15.80;;;11.18;;
485;SDS011;229;48.734;9.340;2023-05-14T07:42:48;15.43;;;11.75;;
485;SDS011;229;48.734;9.340;2023-05-14T07:45:16;15.57;;;11.75;;
485;SDS011;229;48.734;9.340;2023-05-14T07:47:43;14.75;;;12.45;;
485;SDS011;229;48.734;9.340;2023-05-14T07:50:10;13.30;;;10.88;;
485;SDS011;229;48.734;9.340;2023-05-14T07:52:37;13.68;;;11.60;;
485;SDS011;229;48.734;9.340;2023-05-14T07:55:05;14.35;;;10.68;;
485;SDS011;229;48.734;9.340;2023-05-14T07:57:34;19.77;;;11.80;;
485;SDS011;229;48.734;9.340;2023-05-14T08:00:01;14.82;;;11.20;;
485;SDS011;229;48.734;9.340;2023-05-14T08:02:28;13.70;;;10.98;;
485;SDS011;229;48.734;9.340;2023-05-14T08:04:56;13.18;;;10.90;;
485;SDS011;229;48.734;9.340;2023-05-14T08:07:23;13.50;;;10.60;;
485;SDS011;229;48.734;9.340;2023-05-14T08:09:51;16.33;;;12.50;;
485;SDS011;229;48.734;9.340;2023-05-14T08:12:18;13.77;;;10.98;;
485;SDS011;229;48.734;9.340;2023-05-14T08:14:47;14.48;;;11.70;;
485;SDS011;229;48.734;9.340;2023-05-14T08:17:14;13.50;;;9.73;;
485;SDS011;229;48.734;9.340;2023-05-14T08:19:41;12.27;;;10.07;;
485;SDS011;229;48.734;9.340;2023-05-14T08:22:09;12.75;;;10.63;;
485;SDS011;229;48.734;9.340;2023-05-14T08:24:36;13.30;;;10.70;;
485;SDS011;229;48.734;9.340;2023-05-14T08:27:03;13.32;;;11.05;;
485;SDS011;229;48.734;9.340;2023-05-14T08:29:31;14.20;;;10.05;;
485;SDS011;229;48.734;9.340;2023-05-14T08:31:59;14.38;;;11.00;;
485;SDS011;229;48.734;9.340;2023-05-14T08:34:26;12.57;;;10.55;;
485;SDS011;229;48.734;9.340;2023-05-14T08:36:54;11.77;;;10.30;;
485;SDS011;229;48.734;9.340;2023-05-14T08:39:21;12.25;;;9.70;;
485;SDS011;229;48.734;9.340;2023-05-14T08:41:48;14.40;;;9.60;;
485;SDS011;229;48.734;9.340;2023-05-14T08:44:17;13.07;;;9.88;;
485;SDS011;229;48.734;9.340;2023-05-14T08:46:44;12.88;;;9.75;;
485;SDS011;229;48.734;9.340;2023-05-14T08:51:58;13.65;;;9.60;;
485;SDS011;229;48.734;9.340;2023-05-14T08:54:26;16.35;;;10.38;;
485;SDS011;229;48.734;9.340;2023-05-14T08:56:54;13.20;;;10.55;;
485;SDS011;229;48.734;9.340;2023-05-14T08:59:21;13.13;;;11.07;;
485;SDS011;229;48.734;9.340;2023-05-14T09:01:51;16.42;;;11.48;;
485;SDS011;229;48.734;9.340;2023-05-14T09:04:19;17.48;;;11.48;;
485;SDS011;229;48.734;9.340;2023-05-14T09:06:47;15.45;;;10.68;;
485;SDS011;229;48.734;9.340;2023-05-14T09:09:16;13.25;;;11.15;;
485;SDS011;229;48.734;9.340;2023-05-14T09:11:46;15.77;;;10.57;;
485;SDS011;229;48.734;9.340;2023-05-14T09:14:14;14.65;;;11.27;;
485;SDS011;229;48.734;9.340;2023-05-14T09:16:41;13.43;;;10.57;;
485;SDS011;229;48.734;9.340;2023-05-14T09:19:10;14.45;;;11.15;;
485;SDS011;229;48.734;9.340;2023-05-14T09:21:38;14.77;;;10.90;;
485;SDS011;229;48.734;9.340;2023-05-14T09:24:06;17.60;;;11.88;;
485;SDS011;229;48.734;9.340;2023-05-14T09:26:34;21.65;;;12.23;;
485;SDS011;229;48.734;9.340;2023-05-14T09:29:01;21.17;;;12.23;;
485;SDS011;229;48.734;9.340;2023-05-14T09:31:29;17.35;;;11.43;;
485;SDS011;229;48.734;9.340;2023-05-14T09:33:56;16.27;;;11.65;;
485;SDS011;229;48.734;9.340;2023-05-14T09:36:24;14.55;;;11.70;;
485;SDS011;229;48.734;9.340;2023-05-14T09:38:52;14.90;;;11.65;;
485;SDS011;229;48.734;9.340;2023-05-14T09:41:19;17.67;;;12.35;;
485;SDS011;229;48.734;9.340;2023-05-14T09:43:48;16.15;;;11.88;;
485;SDS011;229;48.734;9.340;2023-05-14T09:46:15;14.90;;;11.25;;
485;SDS011;229;48.734;9.340;2023-05-14T09:48:42;14.65;;;12.50;;
485;SDS011;229;48.734;9.340;2023-05-14T09:51:11;15.20;;;11.60;;
485;SDS011;229;48.734;9.340;2023-05-14T09:53:38;13.02;;;11.02;;
485;SDS011;229;48.734;9.340;2023-05-14T09:56:06;14.05;;;11.60;;
485;SDS011;229;48.734;9.340;2023-05-14T09:58:33;16.05;;;11.05;;
485;SDS011;229;48.734;9.340;2023-05-14T10:01:02;15.07;;;11.93;;
485;SDS011;229;48.734;9.340;2023-05-14T10:03:30;14.55;;;11.23;;
485;SDS011;229;48.734;9.340;2023-05-14T10:05:59;13.95;;;11.15;;
485;SDS011;229;48.734;9.340;2023-05-14T10:08:29;15.98;;;11.05;;
485;SDS011;229;48.734;9.340;2023-05-14T10:10:57;14.00;;;10.80;;
485;SDS011;229;48.734;9.340;2023-05-14T10:13:26;10.57;;;9.50;;
485;SDS011;229;48.734;9.340;2023-05-14T10:15:56;12.60;;;10.30;;
485;SDS011;229;48.734;9.340;2023-05-14T10:18:27;17.33;;;11.57;;
485;SDS011;229;48.734;9.340;2023-05-14T10:20:59;12.40;;;10.32;;
485;SDS011;229;48.734;9.340;2023-05-14T10:23:29;14.13;;;9.68;;
485;SDS011;229;48.734;9.340;2023-05-14T10:25:56;15.02;;;10.27;;
485;SDS011;229;48.734;9.340;2023-05-14T10:28:23;12.55;;;9.90;;
485;SDS011;229;48.734;9.340;2023-05-14T10:30:51;10.77;;;8.38;;
485;SDS011;229;48.734;9.340;2023-05-14T10:33:18;8.85;;;7.93;;
485;SDS011;229;48.734;9.340;2023-05-14T10:35:55;11.47;;;8.20;;
485;SDS011;229;48.734;9.340;2023-05-14T10:38:24;10.27;;;8.35;;
485;SDS011;229;48.734;9.340;2023-05-14T10:40:53;9.73;;;8.15;;
485;SDS011;229;48.734;9.340;2023-05-14T10:43:20;9.30;;;8.30;;
485;SDS011;229;48.734;9.340;2023-05-14T10:45:50;12.17;;;9.47;;
485;SDS011;229;48.734;9.340;2023-05-14T10:48:17;11.88;;;8.60;;
485;SDS011;229;48.734;9.340;2023-05-14T10:50:46;10.82;;;8.43;;
485;SDS011;229;48.734;9.340;2023-05-14T10:53:15;9.95;;;8.20;;
485;SDS011;229;48.734;9.340;2023-05-14T10:55:42;8.43;;;7.63;;
485;SDS011;229;48.734;9.340;2023-05-14T10:58:10;8.60;;;7.40;;
485;SDS011;229;48.734;9.340;2023-05-14T11:00:37;9.20;;;7.85;;
485;SDS011;229;48.734;9.340;2023-05-14T11:03:05;7.80;;;7.40;;
485;SDS011;229;48.734;9.340;2023-05-14T11:05:32;11.65;;;8.43;;
485;SDS011;229;48.734;9.340;2023-05-14T11:08:02;10.05;;;7.90;;
485;SDS011;229;48.734;9.340;2023-05-14T11:10:31;7.60;;;7.07;;
485;SDS011;229;48.734;9.340;2023-05-14T11:12:59;9.03;;;7.30;;
485;SDS011;229;48.734;9.340;2023-05-14T11:15:26;8.32;;;7.20;;
485;SDS011;229;48.734;9.340;2023-05-14T11:17:54;8.53;;;7.50;;
485;SDS011;229;48.734;9.340;2023-05-14T11:20:21;7.80;;;7.43;;
485;SDS011;229;48.734;9.340;2023-05-14T11:22:48;8.80;;;7.17;;
485;SDS011;229;48.734;9.340;2023-05-14T11:25:16;8.13;;;7.40;;
485;SDS011;229;48.734;9.340;2023-05-14T11:27:46;9.50;;;6.90;;
485;SDS011;229;48.734;9.340;2023-05-14T11:30:13;7.33;;;5.90;;
485;SDS011;229;48.734;9.340;2023-05-14T11:32:41;6.47;;;6.00;;
485;SDS011;229;48.734;9.340;2023-05-14T11:35:09;6.93;;;5.87;;
485;SDS011;229;48.734;9.340;2023-05-14T11:37:36;7.43;;;6.63;;
485;SDS011;229;48.734;9.340;2023-05-14T11:40:05;8.27;;;6.60;;
485;SDS011;229;48.734;9.340;2023-05-14T11:42:33;7.03;;;6.70;;
485;SDS011;229;48.734;9.340;2023-05-14T11:45:04;7.83;;;7.00;;
485;SDS011;229;48.734;9.340;2023-05-14T11:47:31;9.70;;;7.13;;
485;SDS011;229;48.734;9.340;2023-05-14T11:49:58;6.43;;;5.53;;
485;SDS011;229;48.734;9.340;2023-05-14T11:52:25;6.60;;;5.80;;
485;SDS011;229;48.734;9.340;2023-05-14T11:54:53;6.90;;;6.50;;
485;SDS011;229;48.734;9.340;2023-05-14T11:57:20;8.63;;;6.17;;
485;SDS011;229;48.734;9.340;2023-05-14T11:59:48;9.63;;;7.20;;
485;SDS011;229;48.734;9.340;2023-05-14T12:02:22;7.80;;;6.20;;
485;SDS011;229;48.734;9.340;2023-05-14T12:04:53;6.80;;;5.90;;
485;SDS011;229;48.734;9.340;2023-05-14T12:07:20;7.80;;;5.73;;
485;SDS011;229;48.734;9.340;2023-05-14T12:09:47;8.13;;;6.13;;
485;SDS011;229;48.734;9.340;2023-05-14T12:12:16;6.80;;;6.00;;
485;SDS011;229;48.734;9.340;2023-05-14T12:14:44;10.27;;;6.30;;
485;SDS011;229;48.734;9.340;2023-05-14T12:17:12;6.57;;;5.67;;
485;SDS011;229;48.734;9.340;2023-05-14T12:19:41;6.00;;;5.70;;
485;SDS011;229;48.734;9.340;2023-05-14T12:22:09;6.07;;;5.50;;
485;SDS011;229;48.734;9.340;2023-05-14T12:24:36;7.60;;;5.17;;
485;SDS011;229;48.734;9.340;2023-05-14T12:27:04;6.20;;;5.90;;
485;SDS011;229;48.734;9.340;2023-05-14T12:29:34;5.90;;;5.60;;
485;SDS011;229;48.734;9.340;2023-05-14T12:32:02;9.03;;;5.43;;
485;SDS011;229;48.734;9.340;2023-05-14T12:34:33;6.43;;;6.03;;
485;SDS011;229;48.734;9.340;2023-05-14T12:37:02;5.87;;;5.57;;
485;SDS011;229;48.734;9.340;2023-05-14T12:39:31;6.82;;;5.97;;
485;SDS011;229;48.734;9.340;2023-05-14T12:41:58;13.60;;;5.57;;
485;SDS011;229;48.734;9.340;2023-05-14T12:44:25;9.75;;;5.70;;
485;SDS011;229;48.734;9.340;2023-05-14T12:46:52;6.73;;;6.37;;
485;SDS011;229;48.734;9.340;2023-05-14T12:49:22;6.00;;;5.43;;
485;SDS011;229;48.734;9.340;2023-05-14T12:51:49;6.80;;;6.17;;
485;SDS011;229;48.734;9.340;2023-05-14T12:54:18;6.73;;;6.33;;
485;SDS011;229;48.734;9.340;2023-05-14T12:56:45;6.70;;;6.20;;
485;SDS011;229;48.734;9.340;2023-05-14T12:59:13;5.80;;;5.50;;
485;SDS011;229;48.734;9.340;2023-05-14T13:01:40;5.90;;;5.50;;
485;SDS011;229;48.734;9.340;2023-05-14T13:04:08;6.43;;;6.03;;
485;SDS011;229;48.734;9.340;2023-05-14T13:06:36;6.30;;;6.00;;
485;SDS011;229;48.734;9.340;2023-05-14T13:09:04;6.00;;;5.70;;
485;SDS011;229;48.734;9.340;2023-05-14T13:11:32;6.73;;;6.20;;
485;SDS011;229;48.734;9.340;2023-05-14T13:14:00;9.40;;;6.50;;
485;SDS011;229;48.734;9.340;2023-05-14T13:16:28;7.00;;;6.60;;
485;SDS011;229;48.734;9.340;2023-05-14T13:18:55;8.73;;;6.33;;
485;SDS011;229;48.734;9.340;2023-05-14T13:21:22;7.93;;;6.00;;
485;SDS011;229;48.734;9.340;2023-05-14T13:23:50;6.10;;;5.63;;
485;SDS011;229;48.734;9.340;2023-05-14T13:26:17;6.03;;;5.60;;
485;SDS011;229;48.734;9.340;2023-05-14T13:28:45;9.17;;;5.70;;
485;SDS011;229;48.734;9.340;2023-05-14T13:31:13;5.60;;;5.20;;
485;SDS011;229;48.734;9.340;2023-05-14T13:33:41;7.73;;;5.83;;
485;SDS011;229;48.734;9.340;2023-05-14T13:36:08;7.10;;;5.50;;
485;SDS011;229;48.734;9.340;2023-05-14T13:38:35;6.23;;;5.90;;
485;SDS011;229;48.734;9.340;2023-05-14T13:41:03;8.00;;;5.07;;
485;SDS011;229;48.734;9.340;2023-05-14T13:43:30;5.17;;;4.87;;
485;SDS011;229;48.734;9.340;2023-05-14T13:45:59;10.80;;;4.87;;
485;SDS011;229;48.734;9.340;2023-05-14T13:48:26;5.20;;;4.90;;
485;SDS011;229;48.734;9.340;2023-05-14T13:50:55;6.50;;;5.00;;
485;SDS011;229;48.734;9.340;2023-05-14T13:53:22;5.40;;;5.10;;
485;SDS011;229;48.734;9.340;2023-05-14T13:55:50;7.03;;;5.23;;
485;SDS011;229;48.734;9.340;2023-05-14T13:58:20;5.33;;;5.03;;
485;SDS011;229;48.734;9.340;2023-05-14T14:00:48;7.37;;;6.40;;
485;SDS011;229;48.734;9.340;2023-05-14T14:03:16;7.10;;;5.40;;
485;SDS011;229;48.734;9.340;2023-05-14T14:05:43;5.40;;;5.17;;
485;SDS011;229;48.734;9.340;2023-05-14T14:08:10;5.07;;;4.53;;
485;SDS011;229;48.734;9.340;2023-05-14T14:10:38;7.97;;;4.70;;
485;SDS011;229;48.734;9.340;2023-05-14T14:13:06;5.13;;;4.83;;
485;SDS011;229;48.734;9.340;2023-05-14T14:15:33;5.90;;;4.87;;
485;SDS011;229;48.734;9.340;2023-05-14T14:18:01;5.80;;;5.13;;
485;SDS011;229;48.734;9.340;2023-05-14T14:20:29;7.93;;;5.37;;
485;SDS011;229;48.734;9.340;2023-05-14T14:22:56;7.30;;;5.30;;
485;SDS011;229;48.734;9.340;2023-05-14T14:25:24;6.00;;;5.43;;
485;SDS011;229;48.734;9.340;2023-05-14T14:27:51;5.50;;;5.30;;
485;SDS011;229;48.734;9.340;2023-05-14T14:30:18;9.27;;;4.97;;
485;SDS011;229;48.734;9.340;2023-05-14T14:32:45;5.83;;;5.13;;
485;SDS011;229;48.734;9.340;2023-05-14T14:35:13;9.33;;;5.90;;
485;SDS011;229;48.734;9.340;2023-05-14T14:37:42;5.90;;;5.60;;
485;SDS011;229;48.734;9.340;2023-05-14T14:40:13;5.80;;;5.50;;
485;SDS011;229;48.734;9.340;2023-05-14T14:42:41;8.50;;;6.10;;
485;SDS011;229;48.734;9.340;2023-05-14T14:45:08;5.50;;;4.80;;
485;SDS011;229;48.734;9.340;2023-05-14T14:47:36;5.57;;;5.27;;
485;SDS011;229;48.734;9.340;2023-05-14T14:50:03;6.50;;;5.07;;
485;SDS011;229;48.734;9.340;2023-05-14T14:52:31;5.43;;;5.13;;
485;SDS011;229;48.734;9.340;2023-05-14T14:54:59;5.47;;;4.83;;
485;SDS011;229;48.734;9.340;2023-05-14T14:57:26;6.67;;;4.90;;
485;SDS011;229;48.734;9.340;2023-05-14T14:59:53;6.63;;;5.00;;
485;SDS011;229;48.734;9.340;2023-05-14T15:02:20;5.70;;;4.90;;
485;SDS011;229;48.734;9.340;2023-05-14T15:04:48;6.00;;;4.40;;
485;SDS011;229;48.734;9.340;2023-05-14T15:07:15;5.53;;;5.23;;
485;SDS011;229;48.734;9.340;2023-05-14T15:09:44;6.73;;;5.03;;
485;SDS011;229;48.734;9.340;2023-05-14T15:12:12;5.50;;;5.00;;
485;SDS011;229;48.734;9.340;2023-05-14T15:14:41;4.90;;;4.60;;
485;SDS011;229;48.734;9.340;2023-05-14T15:17:08;4.90;;;4.60;;
485;SDS011;229;48.734;9.340;2023-05-14T15:19:35;5.37;;;5.10;;
485;SDS011;229;48.734;9.340;2023-05-14T15:22:02;5.00;;;4.60;;
485;SDS011;229;48.734;9.340;2023-05-14T15:24:29;5.10;;;4.77;;
485;SDS011;229;48.734;9.340;2023-05-14T15:26:57;6.00;;;5.10;;
485;SDS011;229;48.734;9.340;2023-05-14T15:29:25;5.50;;;5.27;;
485;SDS011;229;48.734;9.340;2023-05-14T15:31:52;9.50;;;5.07;;
485;SDS011;229;48.734;9.340;2023-05-14T15:34:20;4.70;;;4.40;;